createdAt,value
2022-09-23T04:52:20.241Z,97100.94
2022-09-23T04:54:23.024Z,97110.19
2022-09-23T04:56:27.393Z,97108.78
2022-09-23T04:58:30.130Z,97109.81
2022-09-23T05:00:33.465Z,97110.50
2022-09-23T05:02:36.650Z,97116.13
2022-09-23T05:04:39.470Z,97117.84
2022-09-23T05:06:43.882Z,97117.56
2022-09-23T05:08:50.723Z,97111.34
2022-09-23T05:10:57.865Z,97123.22
2022-09-23T05:13:00.614Z,97119.88
2022-09-23T05:15:03.571Z,97118.63
2022-09-23T05:17:06.344Z,97113.88
2022-09-23T05:19:09.119Z,97116.91
2022-09-23T05:21:13.198Z,97119.34
2022-09-23T05:23:16.391Z,97114.22
2022-09-23T05:25:20.562Z,97115.03
2022-09-23T05:27:23.483Z,97125.25
2022-09-23T05:29:26.340Z,97123.41
2022-09-23T05:31:30.594Z,97118.88
2022-09-23T05:33:34.101Z,97129.56
2022-09-23T05:35:36.944Z,97132.84
2022-09-23T05:37:39.700Z,97126.47
2022-09-23T05:39:42.467Z,97129.13
2022-09-23T05:41:46.542Z,97129.13
2022-09-23T05:43:50.518Z,97128.31
2022-09-23T05:45:53.402Z,97125.41
2022-09-23T05:47:56.179Z,97128.69
2022-09-23T05:50:00.543Z,97129.50
2022-09-23T05:52:03.948Z,97129.50
2022-09-23T05:54:07.278Z,97122.88
2022-09-23T05:56:10.063Z,97118.13
2022-09-23T05:58:14.475Z,97116.06
2022-09-23T06:00:17.623Z,97122.00
2022-09-23T06:02:20.465Z,97125.25
2022-09-23T06:04:23.201Z,97126.88
2022-09-23T06:06:28.830Z,97130.13
2022-09-23T06:08:31.882Z,97121.06
2022-09-23T06:10:39.397Z,97120.84
2022-09-23T06:12:44.465Z,97119.59
2022-09-23T06:14:48.612Z,97118.09
2022-09-23T06:16:51.520Z,97113.56
2022-09-23T06:18:54.281Z,97116.00
2022-09-23T06:20:56.986Z,97118.22
2022-09-23T06:23:08.228Z,97120.22
2022-09-23T06:25:13.111Z,97125.09
2022-09-23T06:27:15.868Z,97121.16
2022-09-23T06:29:19.437Z,97123.81
2022-09-23T06:31:23.550Z,97124.88
2022-09-23T06:33:36.289Z,97117.66
2022-09-23T06:35:40.161Z,97116.19
2022-09-23T06:37:42.981Z,97115.16
2022-09-23T06:39:46.299Z,97121.06
2022-09-23T06:41:49.031Z,97109.34
2022-09-23T06:43:51.822Z,97114.44
2022-09-23T06:45:55.135Z,97119.13
2022-09-23T06:47:59.378Z,97121.56
2022-09-23T06:50:02.133Z,97124.81
2022-09-23T06:52:06.114Z,97125.41
2022-09-23T06:54:09.465Z,97128.66
2022-09-23T06:56:12.496Z,97117.97
2022-09-23T06:58:15.627Z,97127.38
2022-09-23T07:00:18.333Z,97128.22
2022-09-23T07:02:21.496Z,97125.31
2022-09-23T07:04:29.212Z,97130.44
2022-09-23T07:06:32.190Z,97128.56
2022-09-23T07:08:36.606Z,97131.81
2022-09-23T07:10:43.200Z,97130.53
2022-09-23T07:12:46.571Z,97127.28
2022-09-23T07:14:49.333Z,97134.25
2022-09-23T07:16:53.273Z,97139.59
2022-09-23T07:18:56.859Z,97135.88
2022-09-23T07:21:07.125Z,97141.22
2022-09-23T07:23:10.203Z,97136.47
2022-09-23T07:25:13.532Z,97137.28
2022-09-23T07:27:20.291Z,97142.41
2022-09-23T07:29:23.512Z,97135.22
2022-09-23T07:31:37.103Z,97135.00
2022-09-23T07:33:44.208Z,97127.81
2022-09-23T07:35:47.143Z,97127.56
2022-09-23T07:37:52.570Z,97134.53
2022-09-23T07:39:56.012Z,97131.63
2022-09-23T07:42:03.940Z,97138.63
2022-09-23T07:44:06.932Z,97142.91
2022-09-23T07:46:14.623Z,97145.59
2022-09-23T07:48:17.486Z,97140.84
2022-09-23T07:50:20.749Z,97145.97
2022-09-23T07:52:23.676Z,97141.44
2022-09-23T07:54:29.711Z,97139.34
2022-09-23T07:56:32.593Z,97136.41
2022-09-23T07:58:36.328Z,97142.34
2022-09-23T08:00:39.089Z,97149.91
2022-09-23T08:02:42.467Z,97130.97
2022-09-23T08:04:46.219Z,97139.00
2022-09-23T08:06:50.655Z,97135.50
2022-09-23T08:08:53.832Z,97140.75
2022-09-23T08:11:03.595Z,97143.19
2022-09-23T08:13:06.465Z,97135.97
2022-09-23T08:15:10.169Z,97137.97
2022-09-23T08:17:14.155Z,97142.84
2022-09-23T08:19:17.578Z,97144.00
2022-09-23T08:21:21.459Z,97145.41
2022-09-23T08:23:31.904Z,97150.28
2022-09-23T08:25:34.899Z,97144.72
2022-09-23T08:27:39.289Z,97145.75
2022-09-23T08:29:42.009Z,97143.91
2022-09-23T08:31:44.947Z,97151.69
2022-09-23T08:33:47.699Z,97149.59
2022-09-23T08:35:50.765Z,97160.06
2022-09-23T08:37:53.544Z,97157.16
2022-09-23T08:39:56.349Z,97151.81
2022-09-23T08:42:08.642Z,97159.03
2022-09-23T08:44:17.138Z,97152.41
2022-09-23T08:46:25.976Z,97148.66
2022-09-23T08:48:31.957Z,97147.63
2022-09-23T08:50:42.306Z,97139.13
2022-09-23T08:52:52.661Z,97151.00
2022-09-23T08:54:55.760Z,97149.72
2022-09-23T08:57:02.628Z,97151.34
2022-09-23T08:59:12.223Z,97147.84
2022-09-23T09:01:23.963Z,97145.75
2022-09-23T09:03:35.053Z,97146.91
2022-09-23T09:05:38.426Z,97145.63
2022-09-23T09:07:43.148Z,97144.34
2022-09-23T09:09:49.961Z,97147.59
2022-09-23T09:11:58.283Z,97142.25
2022-09-23T09:14:13.933Z,97145.97
2022-09-23T09:16:55.621Z,97141.19
2022-09-23T09:18:56.135Z,97135.03
2022-09-23T09:21:05.378Z,97132.34
2022-09-23T09:23:21.467Z,97135.84
2022-09-23T09:25:33.555Z,97135.34
2022-09-23T09:27:44.248Z,97134.53
2022-09-23T09:29:54.534Z,97128.38
2022-09-23T09:31:59.810Z,97121.97
2022-09-23T09:34:06.690Z,97122.34
2022-09-23T09:36:26.057Z,97116.16
2022-09-23T09:38:30.091Z,97117.78
2022-09-23T09:40:34.692Z,97125.59
2022-09-23T09:42:40.423Z,97119.41
2022-09-23T09:44:49.250Z,97118.38
2022-09-23T09:47:01.522Z,97113.59
2022-09-23T09:49:13.018Z,97115.81
2022-09-23T09:51:22.322Z,97114.56
2022-09-23T09:53:28.078Z,97114.31
2022-09-23T09:55:30.897Z,97115.69
2022-09-23T09:57:40.047Z,97116.50
2022-09-23T09:59:44.299Z,97119.19
2022-09-23T10:01:47.688Z,97118.69
2022-09-23T10:03:55.516Z,97112.88
2022-09-23T10:06:01.303Z,97112.88
2022-09-23T10:08:24.646Z,97109.38
2022-09-23T10:10:32.802Z,97109.16
2022-09-23T10:12:47.039Z,97101.13
2022-09-23T10:14:52.243Z,97103.00
2022-09-23T10:17:05.675Z,97100.53
2022-09-23T10:19:18.265Z,97098.44
2022-09-23T10:21:27.876Z,97094.72
2022-09-23T10:23:33.572Z,97094.22
2022-09-23T10:25:38.040Z,97098.28
2022-09-23T10:27:40.763Z,97087.56
2022-09-23T10:29:51.747Z,97085.13
2022-09-23T10:32:21.280Z,97076.28
2022-09-23T10:34:27.589Z,97075.47
2022-09-23T10:36:33.572Z,97070.38
2022-09-23T10:38:36.511Z,97069.06
2022-09-23T10:40:58.443Z,97063.47
2022-09-23T10:43:38.754Z,97057.28
2022-09-23T10:45:59.612Z,97062.16
2022-09-23T10:48:11.578Z,97059.50
2022-09-23T10:50:32.328Z,97051.81
2022-09-23T10:52:58.202Z,97054.50
2022-09-23T10:55:12.040Z,97055.06
2022-09-23T10:57:41.776Z,97044.66
2022-09-23T10:59:58.611Z,97043.97
2022-09-23T11:02:18.574Z,97044.78
2022-09-23T11:04:59.726Z,97042.66
2022-09-23T11:07:20.757Z,97042.66
2022-09-23T11:09:33.881Z,97035.69
2022-09-23T11:11:51.125Z,97035.44
2022-09-23T11:14:17.382Z,97027.72
2022-09-23T11:16:32.935Z,97028.28
2022-09-23T11:18:50.282Z,97025.34
2022-09-23T11:21:04.824Z,97021.41
2022-09-23T11:23:39.749Z,97017.66
2022-09-23T11:25:52.269Z,97020.91
2022-09-23T11:28:19.113Z,97019.28
2022-09-23T11:30:22.607Z,97016.84
2022-09-23T11:32:54.111Z,97013.63
2022-09-23T11:35:11.961Z,97013.94
2022-09-23T11:37:22.100Z,97008.06
2022-09-23T11:39:34.152Z,97006.22
2022-09-23T11:41:40.675Z,97001.91
2022-09-23T11:43:47.233Z,96998.50
2022-09-23T11:45:56.390Z,96996.41
2022-09-23T11:48:04.121Z,96985.19
2022-09-23T11:50:18.801Z,96982.81
2022-09-23T11:52:27.620Z,96989.59
2022-09-23T11:54:38.006Z,96993.16
2022-09-23T11:56:48.883Z,96985.66
2022-09-23T11:59:02.227Z,96982.72
2022-09-23T12:01:13.141Z,96983.31
2022-09-23T12:03:34.043Z,96975.28
2022-09-23T12:05:47.217Z,96976.97
2022-09-23T12:07:56.717Z,96978.38
2022-09-23T12:10:04.178Z,96973.56
2022-09-23T12:12:19.053Z,96970.41
2022-09-23T12:14:32.361Z,96966.41
2022-09-23T12:17:08.464Z,96964.31
2022-09-23T12:19:30.284Z,96959.50
2022-09-23T12:21:51.589Z,96963.56
2022-09-23T12:24:17.118Z,96945.38
2022-09-23T12:26:25.094Z,96946.72
2022-09-23T12:28:33.745Z,96952.16
2022-09-23T12:30:39.588Z,96942.00
2022-09-23T12:32:43.169Z,96942.56
2022-09-23T12:34:49.278Z,96944.75
2022-09-23T12:36:52.702Z,96942.13
2022-09-23T12:39:02.842Z,96934.16
2022-09-23T12:41:21.901Z,96931.72
2022-09-23T12:43:37.496Z,96932.84
2022-09-23T12:45:42.047Z,96928.03
2022-09-23T12:47:45.099Z,96929.41
2022-09-23T12:49:48.358Z,96933.72
2022-09-23T12:52:25.993Z,96929.16
2022-09-23T12:54:29.997Z,96930.53
2022-09-23T12:57:00.844Z,96929.22
2022-09-23T12:59:23.340Z,96917.75
2022-09-23T13:01:27.475Z,96914.56
2022-09-23T13:03:48.178Z,96909.19
2022-09-23T13:06:11.642Z,96907.56
2022-09-23T13:08:19.044Z,96905.69
2022-09-23T13:10:29.611Z,96902.25
2022-09-23T13:12:38.311Z,96898.22
2022-09-23T13:14:46.800Z,96898.00
2022-09-23T13:16:50.668Z,96896.13
2022-09-23T13:18:55.452Z,96891.31
2022-09-23T13:20:58.263Z,96885.69
2022-09-23T13:23:12.582Z,96884.63
2022-09-23T13:25:20.638Z,96877.94
2022-09-23T13:27:29.173Z,96877.38
2022-09-23T13:29:37.753Z,96875.50
2022-09-23T13:31:44.198Z,96878.44
2022-09-23T13:33:52.493Z,96879.25
2022-09-23T13:36:02.224Z,96881.69
2022-09-23T13:38:12.456Z,96880.09
2022-09-23T13:40:21.550Z,96871.88
2022-09-23T13:42:28.178Z,96876.25
2022-09-23T13:44:31.382Z,96872.50
2022-09-23T13:46:42.940Z,96868.75
2022-09-23T13:48:49.147Z,96870.91
2022-09-23T13:50:53.317Z,96865.28
2022-09-23T13:52:58.956Z,96866.66
2022-09-23T13:55:01.734Z,96857.28
2022-09-23T13:57:04.903Z,96858.09
2022-09-23T13:59:27.858Z,96855.16
2022-09-23T14:01:33.493Z,96857.28
2022-09-23T14:03:38.144Z,96856.22
2022-09-23T14:05:42.848Z,96852.22
2022-09-23T14:07:46.063Z,96842.56
2022-09-23T14:09:52.193Z,96842.06
2022-09-23T14:11:57.558Z,96843.44
2022-09-23T14:14:07.131Z,96840.47
2022-09-23T14:16:14.878Z,96842.09
2022-09-23T14:18:25.703Z,96835.66
2022-09-23T14:20:28.548Z,96842.66
2022-09-23T14:22:32.752Z,96839.16
2022-09-23T14:24:37.267Z,96835.94
2022-09-23T14:26:41.162Z,96834.66
2022-09-23T14:28:44.015Z,96829.28
2022-09-23T14:30:48.130Z,96825.50
2022-09-23T14:32:51.003Z,96831.69
2022-09-23T14:35:06.596Z,96834.38
2022-09-23T14:37:47.348Z,96828.19
2022-09-23T14:39:57.619Z,96830.09
2022-09-23T14:42:00.780Z,96824.38
2022-09-23T14:44:04.022Z,96817.13
2022-09-23T14:46:07.055Z,96815.78
2022-09-23T14:48:14.698Z,96809.06
2022-09-23T14:50:38.979Z,96809.66
2022-09-23T14:52:50.222Z,96814.72
2022-09-23T14:54:54.285Z,96802.63
2022-09-23T14:56:57.757Z,96805.03
2022-09-23T14:59:01.611Z,96805.59
2022-09-23T15:01:26.827Z,96806.16
2022-09-23T15:03:30.125Z,96802.41
2022-09-23T15:05:42.544Z,96782.53
2022-09-23T15:07:49.578Z,96794.38
2022-09-23T15:09:54.304Z,96788.47
2022-09-23T15:12:02.956Z,96797.09
2022-09-23T15:14:26.309Z,96791.72
2022-09-23T15:16:29.255Z,96796.56
2022-09-23T15:18:35.583Z,96792.28
2022-09-23T15:20:38.337Z,96797.34
2022-09-23T15:22:45.533Z,96795.44
2022-09-23T15:24:48.699Z,96789.50
2022-09-23T15:26:59.036Z,96792.47
2022-09-23T15:29:02.045Z,96792.47
2022-09-23T15:31:05.900Z,96787.91
2022-09-23T15:33:12.715Z,96783.03
2022-09-23T15:35:18.606Z,96788.41
2022-09-23T15:37:21.539Z,96785.16
2022-09-23T15:39:35.372Z,96787.31
2022-09-23T15:41:39.021Z,96789.44
2022-09-23T15:43:43.209Z,96792.13
2022-09-23T15:45:48.548Z,96790.78
2022-09-23T15:47:52.463Z,96785.66
2022-09-23T15:49:55.718Z,96791.25
2022-09-23T15:52:01.000Z,96791.53
2022-09-23T15:54:04.048Z,96794.22
2022-09-23T15:56:07.193Z,96790.97
2022-09-23T15:58:10.134Z,96788.28
2022-09-23T16:00:15.909Z,96790.97
2022-09-23T16:02:22.591Z,96793.94
2022-09-23T16:04:26.166Z,96787.19
2022-09-23T16:06:28.979Z,96785.59
2022-09-23T16:08:32.881Z,96779.16
2022-09-23T16:10:36.421Z,96785.59
2022-09-23T16:12:39.127Z,96782.38
2022-09-23T16:14:41.806Z,96786.13
2022-09-23T16:16:47.932Z,96791.50
2022-09-23T16:18:51.481Z,96784.50
2022-09-23T16:20:54.667Z,96776.47
2022-09-23T16:23:00.799Z,96779.16
2022-09-23T16:25:03.819Z,96779.41
2022-09-23T16:27:10.263Z,96772.16
2022-09-23T16:29:13.115Z,96774.56
2022-09-23T16:31:16.907Z,96772.66
2022-09-23T16:33:21.060Z,96772.66
2022-09-23T16:35:25.522Z,96775.34
2022-09-23T16:37:28.164Z,96774.78
2022-09-23T16:39:30.846Z,96772.09
2022-09-23T16:41:34.203Z,96774.78
2022-09-23T16:43:40.238Z,96772.91
2022-09-23T16:45:43.280Z,96776.13
2022-09-23T16:47:47.213Z,96772.66
2022-09-23T16:49:51.268Z,96769.41
2022-09-23T16:51:54.052Z,96773.97
2022-09-23T16:53:58.804Z,96773.16
2022-09-23T16:56:06.449Z,96776.13
2022-09-23T16:58:09.157Z,96778.00
2022-09-23T17:00:32.837Z,96773.16
2022-09-23T17:02:53.216Z,96774.25
2022-09-23T17:04:57.316Z,96777.72
2022-09-23T17:07:00.302Z,96778.53
2022-09-23T17:09:03.158Z,96787.16
2022-09-23T17:11:06.155Z,96788.75
2022-09-23T17:13:09.109Z,96784.72
2022-09-23T17:15:12.537Z,96788.47
2022-09-23T17:17:15.401Z,96783.63
2022-09-23T17:19:18.331Z,96781.19
2022-09-23T17:21:26.382Z,96783.31
2022-09-23T17:23:31.320Z,96780.88
2022-09-23T17:25:35.662Z,96786.50
2022-09-23T17:27:38.366Z,96782.22
2022-09-23T17:29:40.873Z,96781.41
2022-09-23T17:31:43.695Z,96778.97
2022-09-23T17:33:46.634Z,96770.41
2022-09-23T17:35:49.379Z,96772.00
2022-09-23T17:37:54.216Z,96770.66
2022-09-23T17:39:56.938Z,96776.28
2022-09-23T17:41:59.660Z,96773.03
2022-09-23T17:44:02.821Z,96776.78
2022-09-23T17:46:07.334Z,96765.50
2022-09-23T17:48:10.079Z,96753.09
2022-09-23T17:50:14.911Z,96759.00
2022-09-23T17:52:18.120Z,96756.84
2022-09-23T17:54:22.710Z,96757.94
2022-09-23T17:56:29.726Z,96753.38
2022-09-23T17:58:34.493Z,96754.97
2022-09-23T18:00:37.337Z,96748.53
2022-09-23T18:02:40.042Z,96740.25
2022-09-23T18:04:42.957Z,96745.13
2022-09-23T18:06:45.832Z,96741.38
2022-09-23T18:08:51.001Z,96732.25
2022-09-23T18:10:55.105Z,96730.66
2022-09-23T18:12:57.770Z,96727.38
2022-09-23T18:15:00.528Z,96728.22
2022-09-23T18:17:03.530Z,96720.41
2022-09-23T18:19:08.149Z,96721.47
2022-09-23T18:21:11.115Z,96718.19
2022-09-23T18:23:13.859Z,96724.97
2022-09-23T18:25:37.629Z,96726.34
2022-09-23T18:27:41.164Z,96731.13
2022-09-23T18:29:44.099Z,96732.75
2022-09-23T18:31:47.941Z,96731.94
2022-09-23T18:33:51.545Z,96730.31
2022-09-23T18:35:54.347Z,96741.31
2022-09-23T18:37:57.638Z,96740.25
2022-09-23T18:40:00.915Z,96745.63
2022-09-23T18:42:03.783Z,96740.50
2022-09-23T18:44:07.981Z,96748.31
2022-09-23T18:46:14.963Z,96747.72
2022-09-23T18:48:35.366Z,96740.75
2022-09-23T18:50:42.868Z,96742.88
2022-09-23T18:52:45.659Z,96742.06
2022-09-23T18:54:51.812Z,96739.66
2022-09-23T18:56:59.140Z,96730.25
2022-09-23T18:59:01.944Z,96737.22
2022-09-23T19:01:08.364Z,96742.84
2022-09-23T19:03:11.248Z,96743.66
2022-09-23T19:05:14.824Z,96733.19
2022-09-23T19:07:18.014Z,96749.28
2022-09-23T19:09:20.718Z,96745.00
2022-09-23T19:11:24.231Z,96738.25
2022-09-23T19:13:27.104Z,96756.78
2022-09-23T19:15:29.740Z,96756.78
2022-09-23T19:17:34.141Z,96756.78
2022-09-23T19:19:37.110Z,96762.72
2022-09-23T19:21:39.777Z,96761.66
2022-09-23T19:23:47.888Z,96758.72
2022-09-23T19:25:50.746Z,96764.88
2022-09-23T19:27:53.770Z,96767.56
2022-09-23T19:29:57.743Z,96763.25
2022-09-23T19:32:00.555Z,96774.81
2022-09-23T19:34:10.595Z,96771.56
2022-09-23T19:36:14.490Z,96780.19
2022-09-23T19:38:20.866Z,96774.81
2022-09-23T19:40:23.630Z,96776.69
2022-09-23T19:42:28.216Z,96764.34
2022-09-23T19:44:31.155Z,96778.56
2022-09-23T19:46:37.389Z,96772.38
2022-09-23T19:48:40.445Z,96767.81
2022-09-23T19:50:47.736Z,96764.34
2022-09-23T19:52:51.688Z,96760.03
2022-09-23T19:54:54.911Z,96759.22
2022-09-23T19:56:57.634Z,96756.53
2022-09-23T19:59:03.112Z,96757.91
2022-09-23T20:01:08.355Z,96750.91
2022-09-23T20:03:11.288Z,96760.59
2022-09-23T20:05:18.432Z,96760.59
2022-09-23T20:07:24.501Z,96759.50
2022-09-23T20:09:30.036Z,96745.53
2022-09-23T20:11:33.391Z,96745.53
2022-09-23T20:13:36.028Z,96743.94
2022-09-23T20:15:39.014Z,96747.69
2022-09-23T20:17:41.693Z,96744.16
2022-09-23T20:19:44.611Z,96736.63
2022-09-23T20:22:07.778Z,96737.44
2022-09-23T20:24:12.983Z,96740.38
2022-09-23T20:26:33.390Z,96744.13
2022-09-23T20:28:36.244Z,96747.06
2022-09-23T20:30:39.408Z,96746.53
2022-09-23T20:32:44.771Z,96746.53
2022-09-23T20:34:48.712Z,96746.53
2022-09-23T20:36:51.446Z,96751.88
2022-09-23T20:38:55.038Z,96748.41
2022-09-23T20:40:59.789Z,96754.56
2022-09-23T20:43:04.491Z,96754.56
2022-09-23T20:45:08.599Z,96750.00
2022-09-23T20:47:13.220Z,96761.56
2022-09-23T20:49:16.321Z,96762.63
2022-09-23T20:51:19.286Z,96758.31
2022-09-23T20:53:24.124Z,96757.25
2022-09-23T20:55:27.111Z,96749.47
2022-09-23T20:57:31.599Z,96754.56
2022-09-23T20:59:34.826Z,96750.28
2022-09-23T21:01:37.615Z,96759.13
2022-09-23T21:03:42.343Z,96749.19
2022-09-23T21:05:45.521Z,96749.19
2022-09-23T21:07:48.214Z,96754.56
2022-09-23T21:09:51.132Z,96759.13
2022-09-23T21:11:53.809Z,96756.44
2022-09-23T21:13:58.574Z,96752.97
2022-09-23T21:16:03.791Z,96759.13
2022-09-23T21:18:09.124Z,96761.00
2022-09-23T21:20:13.931Z,96755.06
2022-09-23T21:22:17.840Z,96755.06
2022-09-23T21:26:47.259Z,96755.88
2022-09-23T21:28:52.217Z,96750.50
2022-09-23T21:30:58.768Z,96756.13
2022-09-23T21:33:01.854Z,96753.44
2022-09-23T21:35:04.807Z,96754.25
2022-09-23T21:37:08.244Z,96764.19
2022-09-23T21:39:12.426Z,96762.56
2022-09-23T21:41:14.281Z,96760.94
2022-09-23T21:43:17.181Z,96760.94
2022-09-23T21:45:20.108Z,96760.13
2022-09-23T21:47:24.960Z,96763.06
2022-09-23T21:49:27.977Z,96762.28
2022-09-23T21:51:34.051Z,96759.84
2022-09-23T21:53:37.367Z,96761.47
2022-09-23T21:55:40.139Z,96759.84
2022-09-23T21:57:44.013Z,96763.59
2022-09-23T21:59:47.302Z,96766.03
2022-09-23T22:01:54.016Z,96763.34
2022-09-23T22:04:05.118Z,96766.03
2022-09-23T22:06:10.065Z,96769.50
2022-09-23T22:08:12.804Z,96763.06
2022-09-23T22:10:15.700Z,96763.06
2022-09-23T22:12:18.242Z,96759.59
2022-09-23T22:14:24.788Z,96763.06
2022-09-23T22:16:29.072Z,96757.72
2022-09-23T22:18:32.179Z,96757.72
2022-09-23T22:20:36.605Z,96767.38
2022-09-23T22:22:39.280Z,96763.06
2022-09-23T22:24:43.236Z,96761.47
2022-09-23T22:26:46.314Z,96756.09
2022-09-23T22:29:06.497Z,96760.94
2022-09-23T22:31:27.105Z,96757.72
2022-09-23T22:33:29.922Z,96750.22
2022-09-23T22:35:33.426Z,96753.97
2022-09-23T22:37:38.850Z,96745.91
2022-09-23T22:39:42.095Z,96747.78
2022-09-23T22:41:47.913Z,96751.03
2022-09-23T22:43:50.993Z,96739.47
2022-09-23T22:45:53.741Z,96738.97
2022-09-23T22:47:56.936Z,96747.59
2022-09-23T22:49:59.855Z,96740.09
